createdAt,value
2017-10-20T00:00:18.537Z,93.36
2017-10-20T00:01:18.505Z,93.84
2017-10-20T00:02:18.470Z,93.36
2017-10-20T00:03:18.427Z,93.65
2017-10-20T00:04:18.392Z,93.65
2017-10-20T00:05:18.361Z,93.55
2017-10-20T00:06:18.317Z,93.84
2017-10-20T00:07:18.282Z,93.46
2017-10-20T00:08:18.246Z,93.84
2017-10-20T00:09:18.212Z,93.55
2017-10-20T00:10:18.182Z,93.74
2017-10-20T00:11:18.145Z,93.84
2017-10-20T00:12:18.109Z,93.84
2017-10-20T00:13:18.066Z,93.74
2017-10-20T00:14:18.033Z,93.74
2017-10-20T00:15:18.028Z,93.84
2017-10-20T00:16:17.959Z,93.55
2017-10-20T00:17:17.927Z,93.74
2017-10-20T00:18:17.893Z,93.65
2017-10-20T00:19:17.852Z,93.65
2017-10-20T00:20:17.815Z,93.84
2017-10-20T00:21:17.776Z,93.46
2017-10-20T00:22:17.740Z,93.74
2017-10-20T00:23:17.715Z,93.55
2017-10-20T00:24:17.672Z,93.74
2017-10-20T00:25:17.632Z,93.84
2017-10-20T00:26:17.603Z,93.36
2017-10-20T00:27:17.569Z,93.65
2017-10-20T00:28:17.525Z,93.84
2017-10-20T00:29:17.495Z,93.84
2017-10-20T00:30:17.452Z,93.74
2017-10-20T00:31:17.418Z,93.36
2017-10-20T00:32:17.384Z,93.46
2017-10-20T00:33:17.345Z,93.55
2017-10-20T00:34:17.311Z,93.74
2017-10-20T00:35:17.283Z,93.51
2017-10-20T00:36:17.240Z,93.60
2017-10-20T00:37:17.200Z,93.31
2017-10-20T00:38:17.166Z,93.31
2017-10-20T00:39:17.134Z,93.31
2017-10-20T00:40:17.109Z,93.51
2017-10-20T00:41:17.062Z,93.60
2017-10-20T00:42:17.017Z,93.65
2017-10-20T00:43:16.984Z,93.51
2017-10-20T00:44:16.947Z,93.74
2017-10-20T00:45:16.911Z,93.79
2017-10-20T00:46:16.876Z,93.84
2017-10-20T00:47:16.847Z,93.79
2017-10-20T00:48:16.814Z,93.79
2017-10-20T00:49:16.767Z,93.41
2017-10-20T00:50:16.735Z,93.41
2017-10-20T00:51:16.693Z,93.41
2017-10-20T00:52:16.662Z,93.79
2017-10-20T00:53:16.630Z,93.79
2017-10-20T00:54:16.585Z,93.79
2017-10-20T00:55:16.559Z,93.70
2017-10-20T00:56:16.518Z,93.79
2017-10-20T00:57:16.478Z,93.31
2017-10-20T00:58:16.442Z,93.60
2017-10-20T00:59:16.404Z,93.79
2017-10-20T01:00:16.368Z,93.79
2017-10-20T01:01:16.332Z,93.51
2017-10-20T01:02:16.303Z,93.70
2017-10-20T01:03:16.261Z,93.60
2017-10-20T01:04:16.223Z,93.51
2017-10-20T01:05:16.187Z,93.70
2017-10-20T01:06:16.168Z,93.79
2017-10-20T01:07:16.113Z,93.41
2017-10-20T01:08:16.077Z,93.51
2017-10-20T01:09:16.042Z,93.60
2017-10-20T01:10:16.008Z,93.79
2017-10-20T01:11:15.980Z,93.41
2017-10-20T01:12:15.940Z,93.79
2017-10-20T01:13:15.896Z,93.51
2017-10-20T01:14:15.859Z,93.41
2017-10-20T01:15:15.823Z,93.51
2017-10-20T01:16:15.789Z,93.70
2017-10-20T01:17:15.750Z,93.22
2017-10-20T01:18:15.734Z,93.41
2017-10-20T01:19:15.675Z,93.31
2017-10-20T01:20:15.640Z,93.31
2017-10-20T01:21:15.620Z,93.41
2017-10-20T01:22:15.569Z,93.51
2017-10-20T01:23:15.531Z,93.51
2017-10-20T01:24:15.500Z,93.41
2017-10-20T01:25:15.465Z,93.22
2017-10-20T01:26:15.426Z,93.31
2017-10-20T01:27:15.386Z,93.22
2017-10-20T01:28:15.351Z,93.31
2017-10-20T01:29:15.315Z,93.41
2017-10-20T01:30:15.287Z,93.31
2017-10-20T01:31:15.244Z,93.51
2017-10-20T01:32:15.205Z,93.70
2017-10-20T01:33:15.183Z,93.60
2017-10-20T01:34:15.131Z,93.60
2017-10-20T01:35:15.097Z,93.79
2017-10-20T01:36:15.062Z,93.70
2017-10-20T01:37:15.027Z,93.31
2017-10-20T01:38:14.991Z,93.51
2017-10-20T01:39:14.953Z,93.60
2017-10-20T01:40:14.918Z,93.70
2017-10-20T01:41:14.878Z,93.31
2017-10-20T01:42:14.846Z,93.22
2017-10-20T01:43:14.818Z,93.22
2017-10-20T01:44:14.768Z,93.22
2017-10-20T01:45:14.734Z,93.70
2017-10-20T01:46:14.695Z,93.65
2017-10-20T01:47:14.661Z,93.51
2017-10-20T01:48:14.622Z,93.74
2017-10-20T01:49:14.593Z,93.22
2017-10-20T01:50:14.551Z,93.27
2017-10-20T01:51:14.512Z,93.22
2017-10-20T01:52:14.481Z,93.27
2017-10-20T01:53:14.442Z,93.31
2017-10-20T01:54:14.412Z,93.70
2017-10-20T01:55:14.367Z,93.65
2017-10-20T01:56:14.331Z,93.74
2017-10-20T01:57:14.295Z,93.36
2017-10-20T01:58:14.261Z,93.46
2017-10-20T01:59:14.232Z,93.46
2017-10-20T02:00:14.186Z,93.36
2017-10-20T02:01:14.147Z,93.36
2017-10-20T02:02:14.118Z,93.55
2017-10-20T02:03:14.073Z,93.74
2017-10-20T02:04:14.047Z,93.36
2017-10-20T02:05:14.003Z,93.46
2017-10-20T02:06:13.965Z,93.55
2017-10-20T02:07:13.930Z,93.46
2017-10-20T02:08:13.893Z,93.17
2017-10-20T02:09:13.861Z,93.17
2017-10-20T02:10:13.820Z,93.65
2017-10-20T02:11:13.789Z,93.46
2017-10-20T02:12:13.752Z,93.65
2017-10-20T02:13:13.713Z,93.55
2017-10-20T02:14:13.673Z,93.55
2017-10-20T02:15:13.644Z,93.65
2017-10-20T02:16:13.605Z,93.65
2017-10-20T02:17:13.568Z,93.36
2017-10-20T02:18:13.533Z,93.55
2017-10-20T02:19:13.494Z,93.74
2017-10-20T02:20:13.472Z,93.65
2017-10-20T02:21:13.420Z,93.65
2017-10-20T02:22:13.386Z,93.74
2017-10-20T02:23:13.367Z,93.55
2017-10-20T02:24:13.317Z,93.74
2017-10-20T02:25:13.273Z,93.55
2017-10-20T02:26:13.239Z,93.55
2017-10-20T02:27:13.209Z,93.55
2017-10-20T02:28:13.167Z,93.55
2017-10-20T02:29:13.132Z,93.17
2017-10-20T02:30:13.099Z,92.79
2017-10-20T02:31:13.057Z,93.08
2017-10-20T02:32:13.017Z,93.65
2017-10-20T02:33:12.995Z,93.55
2017-10-20T02:34:12.949Z,93.17
2017-10-20T02:35:12.925Z,93.17
2017-10-20T02:36:12.884Z,93.55
2017-10-20T02:37:12.843Z,93.55
2017-10-20T02:38:12.808Z,93.65
2017-10-20T02:39:12.762Z,92.98
2017-10-20T02:40:12.724Z,93.36
2017-10-20T02:41:12.691Z,93.17
2017-10-20T02:42:12.652Z,92.98
2017-10-20T02:43:12.613Z,93.36
2017-10-20T02:44:12.583Z,93.17
2017-10-20T02:45:12.555Z,93.55
2017-10-20T02:46:12.505Z,93.74
2017-10-20T02:47:12.470Z,93.55
2017-10-20T02:48:12.432Z,93.65
2017-10-20T02:49:12.398Z,93.74
2017-10-20T02:50:12.358Z,93.65
2017-10-20T02:51:12.324Z,93.65
2017-10-20T02:52:12.287Z,93.55
2017-10-20T02:53:12.256Z,93.55
2017-10-20T02:54:12.213Z,93.55
2017-10-20T02:55:12.178Z,93.74
2017-10-20T02:56:12.144Z,93.36
2017-10-20T02:57:12.099Z,93.65
2017-10-20T02:58:12.071Z,93.17
2017-10-20T02:59:12.034Z,92.79
2017-10-20T03:00:11.997Z,93.36
2017-10-20T03:01:11.955Z,92.60
2017-10-20T03:02:11.928Z,93.27
2017-10-20T03:03:11.899Z,93.08
2017-10-20T03:04:11.864Z,93.17
2017-10-20T03:05:11.814Z,93.27
2017-10-20T03:06:11.780Z,92.88
2017-10-20T03:07:11.734Z,92.98
2017-10-20T03:08:11.705Z,92.98
2017-10-20T03:09:11.665Z,93.17
2017-10-20T03:10:11.626Z,92.98
2017-10-20T03:11:11.587Z,92.98
2017-10-20T03:12:11.553Z,93.17
2017-10-20T03:13:11.514Z,92.79
2017-10-20T03:14:11.473Z,93.17
2017-10-20T03:15:11.441Z,93.74
2017-10-20T03:16:11.405Z,93.55
2017-10-20T03:17:11.369Z,92.98
2017-10-20T03:18:11.334Z,92.79
2017-10-20T03:19:11.297Z,93.55
2017-10-20T03:20:11.255Z,93.55
2017-10-20T03:21:11.219Z,93.46
2017-10-20T03:22:11.187Z,93.27
2017-10-20T03:23:11.156Z,93.55
2017-10-20T03:24:11.108Z,93.46
2017-10-20T03:25:11.073Z,93.70
2017-10-20T03:26:11.045Z,93.51
2017-10-20T03:27:10.999Z,92.98
2017-10-20T03:28:10.971Z,92.79
2017-10-20T03:29:10.937Z,93.27
2017-10-20T03:30:10.903Z,92.98
2017-10-20T03:31:10.902Z,93.17
2017-10-20T03:32:10.819Z,93.03
2017-10-20T03:33:10.780Z,93.12
2017-10-20T03:34:10.743Z,93.12
2017-10-20T03:35:10.708Z,93.03
2017-10-20T03:36:10.668Z,93.17
2017-10-20T03:37:10.641Z,93.32
2017-10-20T03:38:10.595Z,93.03
2017-10-20T03:39:10.558Z,93.22
2017-10-20T03:40:10.520Z,93.22
2017-10-20T03:41:10.487Z,93.22
2017-10-20T03:42:10.446Z,92.93
2017-10-20T03:43:10.418Z,92.74
2017-10-20T03:44:10.375Z,93.41
2017-10-20T03:45:10.340Z,93.12
2017-10-20T03:46:10.306Z,93.12
2017-10-20T03:47:10.267Z,92.74
2017-10-20T03:48:10.243Z,93.03
2017-10-20T03:49:10.201Z,93.22
2017-10-20T03:50:10.154Z,92.93
2017-10-20T03:51:10.133Z,93.22
2017-10-20T03:52:10.084Z,93.12
2017-10-20T03:53:10.045Z,93.03
2017-10-20T03:54:10.008Z,92.74
2017-10-20T03:55:09.971Z,93.03
2017-10-20T03:56:09.957Z,93.22
2017-10-20T03:57:09.900Z,92.93
2017-10-20T03:58:09.862Z,92.93
2017-10-20T03:59:09.828Z,92.93
2017-10-20T04:00:09.788Z,93.03
2017-10-20T04:01:09.751Z,92.84
2017-10-20T04:02:09.715Z,92.74
2017-10-20T04:03:09.683Z,93.12
2017-10-20T04:04:09.645Z,92.74
2017-10-20T04:05:09.606Z,93.22
2017-10-20T04:06:09.569Z,93.03
2017-10-20T04:07:09.532Z,92.93
2017-10-20T04:08:09.492Z,92.93
2017-10-20T04:09:09.452Z,92.93
2017-10-20T04:10:09.421Z,92.84
2017-10-20T04:11:09.395Z,93.22
2017-10-20T04:12:09.348Z,92.93
2017-10-20T04:13:09.308Z,92.74
2017-10-20T04:14:09.273Z,92.93
2017-10-20T04:15:09.244Z,92.74
2017-10-20T04:16:09.199Z,92.84
2017-10-20T04:17:09.161Z,92.36
2017-10-20T04:18:09.127Z,92.65
2017-10-20T04:19:09.098Z,92.65
2017-10-20T04:20:09.074Z,92.74
2017-10-20T04:21:09.019Z,92.65
2017-10-20T04:22:08.977Z,92.65
2017-10-20T04:23:08.941Z,92.65
2017-10-20T04:24:08.925Z,92.84
2017-10-20T04:25:08.865Z,92.65
2017-10-20T04:26:08.836Z,93.03
2017-10-20T04:27:08.824Z,92.74
2017-10-20T04:28:08.757Z,92.84
2017-10-20T04:29:08.718Z,92.65
2017-10-20T04:30:08.682Z,92.84
2017-10-20T04:31:08.646Z,92.74
2017-10-20T04:32:08.609Z,92.65
2017-10-20T04:33:08.573Z,93.03
2017-10-20T04:34:08.533Z,93.03
2017-10-20T04:35:08.504Z,93.12
2017-10-20T04:36:08.460Z,93.03
2017-10-20T04:37:08.426Z,92.74
2017-10-20T04:38:08.386Z,92.93
2017-10-20T04:39:08.351Z,93.03
2017-10-20T04:40:08.327Z,92.84
2017-10-20T04:41:08.277Z,93.12
2017-10-20T04:42:08.241Z,92.74
2017-10-20T04:43:08.200Z,92.84
2017-10-20T04:44:08.164Z,93.22
2017-10-20T04:45:08.129Z,92.93
2017-10-20T04:46:08.091Z,92.93
2017-10-20T04:47:08.063Z,93.03
2017-10-20T04:48:08.017Z,93.22
2017-10-20T04:49:07.980Z,93.22
2017-10-20T04:50:07.940Z,92.84
2017-10-20T04:51:07.908Z,92.84
2017-10-20T04:52:07.868Z,92.93
2017-10-20T04:53:07.832Z,93.12
2017-10-20T04:54:07.797Z,93.12
2017-10-20T04:55:07.760Z,93.03
2017-10-20T04:56:07.740Z,92.93
2017-10-20T04:57:07.695Z,92.74
2017-10-20T04:58:07.649Z,93.03
2017-10-20T04:59:07.614Z,93.12
2017-10-20T05:00:07.577Z,92.74
2017-10-20T05:01:07.542Z,92.74
2017-10-20T05:02:07.500Z,92.74
2017-10-20T05:03:07.463Z,92.74
2017-10-20T05:04:07.440Z,93.03
2017-10-20T05:05:07.392Z,92.93
2017-10-20T05:06:07.351Z,92.74
2017-10-20T05:07:07.319Z,92.74
2017-10-20T05:08:07.300Z,92.84
2017-10-20T05:09:07.248Z,92.55
2017-10-20T05:10:07.204Z,92.55
2017-10-20T05:11:07.171Z,92.55
2017-10-20T05:12:07.136Z,92.55
2017-10-20T05:13:07.098Z,92.65
2017-10-20T05:14:07.061Z,92.93
2017-10-20T05:15:07.021Z,92.93
2017-10-20T05:16:06.980Z,91.98
2017-10-20T05:17:06.943Z,92.27
2017-10-20T05:18:06.908Z,92.36
2017-10-20T05:19:06.871Z,92.08
2017-10-20T05:20:06.842Z,92.36
2017-10-20T05:21:06.808Z,92.17
2017-10-20T05:22:06.761Z,92.36
2017-10-20T05:23:06.749Z,91.98
2017-10-20T05:24:06.686Z,92.08
2017-10-20T05:25:06.681Z,92.27
2017-10-20T05:26:06.621Z,92.17
2017-10-20T05:27:06.621Z,91.88
2017-10-20T05:28:06.538Z,92.17
2017-10-20T05:29:06.503Z,92.08
2017-10-20T05:30:06.464Z,92.36
2017-10-20T05:31:06.429Z,92.46
2017-10-20T05:32:06.392Z,91.60
2017-10-20T05:33:06.362Z,92.27
2017-10-20T05:34:06.321Z,92.17
2017-10-20T05:35:06.313Z,91.98
2017-10-20T05:36:06.244Z,92.65
2017-10-20T05:37:06.217Z,92.17
2017-10-20T05:38:06.170Z,92.46
2017-10-20T05:39:06.133Z,92.22
2017-10-20T05:40:06.102Z,92.65
2017-10-20T05:41:06.061Z,91.88
2017-10-20T05:42:06.034Z,92.74
2017-10-20T05:43:05.987Z,92.65
2017-10-20T05:44:05.971Z,92.79
2017-10-20T05:45:05.925Z,92.08
2017-10-20T05:46:05.887Z,92.03
2017-10-20T05:47:05.845Z,92.46
2017-10-20T05:48:05.801Z,92.08
2017-10-20T05:49:05.763Z,92.08
2017-10-20T05:50:05.729Z,91.88
2017-10-20T05:51:05.694Z,92.08
2017-10-20T05:52:05.654Z,91.79
2017-10-20T05:53:05.618Z,91.98
2017-10-20T05:54:05.583Z,91.74
2017-10-20T05:55:05.541Z,91.88
2017-10-20T05:56:05.507Z,92.12
2017-10-20T05:57:05.470Z,91.83
2017-10-20T05:58:05.432Z,92.03
2017-10-20T05:59:05.425Z,92.12
2017-10-20T06:00:05.363Z,91.93
2017-10-20T06:01:05.325Z,91.64
2017-10-20T06:02:05.285Z,91.36
2017-10-20T06:03:05.249Z,91.55
2017-10-20T06:04:05.230Z,91.36
2017-10-20T06:05:05.174Z,91.55
2017-10-20T06:06:05.147Z,91.64
2017-10-20T06:07:05.101Z,91.36
2017-10-20T06:08:05.067Z,91.07
2017-10-20T06:09:05.044Z,91.27
2017-10-20T06:10:05.007Z,91.27
2017-10-20T06:11:04.964Z,91.55
2017-10-20T06:12:04.921Z,91.83
2017-10-20T06:13:04.887Z,91.55
2017-10-20T06:14:04.859Z,91.46
2017-10-20T06:15:04.817Z,91.27
2017-10-20T06:16:04.782Z,91.36
2017-10-20T06:17:04.737Z,91.46
2017-10-20T06:18:04.699Z,91.36
2017-10-20T06:19:04.667Z,91.46
2017-10-20T06:20:04.630Z,91.55
2017-10-20T06:21:04.597Z,91.93
2017-10-20T06:22:04.558Z,91.64
2017-10-20T06:23:04.526Z,91.55
2017-10-20T06:24:04.479Z,91.55
2017-10-20T06:25:04.447Z,91.27
2017-10-20T06:26:04.411Z,91.55
2017-10-20T06:27:04.369Z,91.55
2017-10-20T06:28:04.336Z,91.46
2017-10-20T06:29:04.317Z,91.64
2017-10-20T06:30:04.267Z,91.46
2017-10-20T06:31:04.227Z,91.55
2017-10-20T06:32:04.214Z,91.55
2017-10-20T06:33:04.152Z,91.74
2017-10-20T06:34:04.113Z,91.36
2017-10-20T06:35:04.080Z,91.17
2017-10-20T06:36:04.058Z,91.55
2017-10-20T06:37:04.004Z,91.17
2017-10-20T06:38:03.966Z,91.17
2017-10-20T06:39:03.934Z,90.98
2017-10-20T06:40:03.895Z,90.98
2017-10-20T06:41:03.860Z,90.88
2017-10-20T06:42:03.821Z,91.07
2017-10-20T06:43:03.786Z,90.88
2017-10-20T06:44:03.751Z,90.69
2017-10-20T06:45:03.724Z,90.50
2017-10-20T06:46:03.678Z,90.88
2017-10-20T06:47:03.638Z,90.59
2017-10-20T06:48:03.603Z,90.88
2017-10-20T06:49:03.571Z,90.98
2017-10-20T06:50:03.539Z,90.69
2017-10-20T06:51:03.508Z,90.69
2017-10-20T06:52:03.466Z,90.59
2017-10-20T06:53:03.427Z,90.69
2017-10-20T06:54:03.405Z,90.98
2017-10-20T06:55:03.353Z,90.69
2017-10-20T06:56:03.316Z,90.69
2017-10-20T06:57:03.281Z,90.59
2017-10-20T06:58:03.241Z,91.12
2017-10-20T06:59:03.204Z,90.69
2017-10-20T07:00:03.169Z,90.45
2017-10-20T07:01:03.142Z,90.69
2017-10-20T07:02:03.100Z,90.55
2017-10-20T07:03:03.066Z,90.83
2017-10-20T07:04:03.030Z,90.36
2017-10-20T07:05:02.989Z,90.73
2017-10-20T07:06:02.964Z,90.64
2017-10-20T07:07:02.927Z,90.55
2017-10-20T07:08:02.880Z,90.26
2017-10-20T07:09:02.842Z,90.17
2017-10-20T07:10:02.807Z,90.45
2017-10-20T07:11:02.783Z,90.07
2017-10-20T07:12:02.733Z,89.97
2017-10-20T07:13:02.697Z,90.17
2017-10-20T07:14:02.662Z,90.55
2017-10-20T07:15:02.633Z,90.45
2017-10-20T07:16:02.588Z,89.97
2017-10-20T07:17:02.560Z,90.36
2017-10-20T07:18:02.521Z,90.45
2017-10-20T07:19:02.491Z,89.97
2017-10-20T07:20:02.447Z,89.59
2017-10-20T07:21:02.410Z,90.11
2017-10-20T07:22:02.375Z,89.64
2017-10-20T07:23:02.346Z,90.02
2017-10-20T07:24:02.300Z,89.64
2017-10-20T07:25:02.268Z,89.73
2017-10-20T07:26:02.227Z,89.06
2017-10-20T07:27:02.199Z,89.35
2017-10-20T07:28:02.165Z,89.45
2017-10-20T07:29:02.119Z,89.25
2017-10-20T07:30:02.104Z,88.87
2017-10-20T07:31:02.054Z,88.49
2017-10-20T07:32:02.032Z,89.16
2017-10-20T07:33:01.979Z,88.87
2017-10-20T07:34:01.944Z,89.06
2017-10-20T07:35:01.911Z,88.87
2017-10-20T07:36:01.868Z,89.16
2017-10-20T07:37:01.841Z,88.78
2017-10-20T07:38:01.800Z,89.35
2017-10-20T07:39:01.762Z,89.35
2017-10-20T07:40:01.730Z,88.92
2017-10-20T07:41:01.694Z,88.87
2017-10-20T07:42:01.656Z,88.59
2017-10-20T07:43:01.618Z,88.34
2017-10-20T07:44:01.586Z,88.34
2017-10-20T07:45:01.551Z,88.63
2017-10-20T07:46:01.513Z,88.25
2017-10-20T07:47:01.483Z,88.54
2017-10-20T07:48:01.448Z,88.63
2017-10-20T07:49:01.408Z,88.40
2017-10-20T07:50:01.373Z,88.20
2017-10-20T07:51:01.345Z,88.63
2017-10-20T07:52:01.299Z,87.87
2017-10-20T07:53:01.266Z,87.96
2017-10-20T07:54:01.230Z,88.25
2017-10-20T07:55:01.209Z,88.06
2017-10-20T07:56:01.158Z,88.25
2017-10-20T07:57:01.127Z,88.25
2017-10-20T07:58:01.089Z,87.68
2017-10-20T07:59:01.050Z,87.77
2017-10-20T08:00:01.030Z,87.87
2017-10-20T08:01:00.982Z,88.06
2017-10-20T08:02:00.953Z,87.77
2017-10-20T08:03:00.908Z,87.39
2017-10-20T08:04:00.884Z,87.58
2017-10-20T08:05:00.851Z,87.48
2017-10-20T08:06:00.806Z,87.39
2017-10-20T08:07:00.769Z,87.15
2017-10-20T08:08:00.743Z,87.43
2017-10-20T08:09:00.700Z,87.15
2017-10-20T08:10:00.666Z,87.05
2017-10-20T08:11:00.633Z,86.67
2017-10-20T08:12:00.596Z,86.76
2017-10-20T08:13:00.569Z,86.96
2017-10-20T08:14:00.521Z,87.24
2017-10-20T08:15:00.489Z,86.96
2017-10-20T08:16:00.478Z,87.34
2017-10-20T08:17:00.418Z,86.96
2017-10-20T08:18:00.388Z,86.86
2017-10-20T08:19:00.347Z,87.34
2017-10-20T08:20:00.321Z,86.10
2017-10-20T08:21:00.279Z,86.76
2017-10-20T08:22:00.241Z,87.34
2017-10-20T08:23:00.207Z,86.86
2017-10-20T08:24:00.174Z,86.38
2017-10-20T08:25:00.151Z,86.47
2017-10-20T08:26:00.117Z,86.38
2017-10-20T08:27:00.065Z,86.38
2017-10-20T08:28:00.033Z,86.57
2017-10-20T08:29:00.004Z,86.14
2017-10-20T08:29:59.967Z,86.33
2017-10-20T08:30:59.930Z,85.85
2017-10-20T08:31:59.898Z,86.14
2017-10-20T08:32:59.860Z,86.14
2017-10-20T08:33:59.826Z,86.14
2017-10-20T08:34:59.789Z,85.66
2017-10-20T08:35:59.771Z,85.57
2017-10-20T08:36:59.722Z,85.66
2017-10-20T08:37:59.704Z,85.47
2017-10-20T08:38:59.651Z,85.13
2017-10-20T08:39:59.622Z,85.32
2017-10-20T08:40:59.584Z,85.32
2017-10-20T08:41:59.543Z,85.22
2017-10-20T08:42:59.509Z,84.55
2017-10-20T08:43:59.489Z,84.94
2017-10-20T08:44:59.462Z,84.94
2017-10-20T08:45:59.409Z,84.75
2017-10-20T08:46:59.370Z,84.75
2017-10-20T08:47:59.342Z,84.36
2017-10-20T08:48:59.306Z,84.75
2017-10-20T08:49:59.271Z,84.84
2017-10-20T08:50:59.239Z,84.84
2017-10-20T08:51:59.203Z,84.94
2017-10-20T08:52:59.167Z,85.03
2017-10-20T08:53:59.137Z,84.94
2017-10-20T08:54:59.099Z,84.65
2017-10-20T08:55:59.062Z,84.46
2017-10-20T08:56:59.040Z,83.79
2017-10-20T08:57:59.008Z,84.08
2017-10-20T08:58:58.959Z,83.60
2017-10-20T08:59:59.508Z,84.17
2017-10-20T09:00:58.893Z,84.17
2017-10-20T09:01:58.858Z,84.36
2017-10-20T09:02:58.828Z,84.17
2017-10-20T09:03:58.789Z,84.55
2017-10-20T09:04:58.757Z,83.98
2017-10-20T09:05:58.738Z,84.36
2017-10-20T09:06:58.689Z,84.65
2017-10-20T09:07:58.661Z,84.65
2017-10-20T09:08:58.620Z,83.79
2017-10-20T09:09:58.601Z,83.64
2017-10-20T09:10:58.549Z,83.45
2017-10-20T09:11:58.513Z,83.64
2017-10-20T09:12:58.481Z,83.64
2017-10-20T09:13:58.467Z,83.54
2017-10-20T09:14:58.429Z,83.54
2017-10-20T09:15:58.380Z,82.78
2017-10-20T09:16:58.346Z,83.26
2017-10-20T09:17:58.317Z,83.06
2017-10-20T09:18:58.277Z,82.97
2017-10-20T09:19:58.255Z,82.97
2017-10-20T09:20:58.205Z,82.97
2017-10-20T09:21:58.177Z,83.06
2017-10-20T09:22:58.145Z,82.59
2017-10-20T09:23:58.108Z,82.49
2017-10-20T09:24:58.075Z,82.53
2017-10-20T09:25:58.045Z,81.96
2017-10-20T09:26:58.014Z,81.96
2017-10-20T09:27:57.970Z,81.67
2017-10-20T09:28:57.937Z,81.67
2017-10-20T09:29:57.909Z,82.15
2017-10-20T09:30:57.875Z,82.06
2017-10-20T09:31:57.840Z,81.96
2017-10-20T09:32:57.809Z,81.48
2017-10-20T09:33:57.769Z,81.86
2017-10-20T09:34:57.740Z,81.86
2017-10-20T09:35:57.702Z,81.57
2017-10-20T09:36:57.669Z,81.67
2017-10-20T09:37:57.632Z,81.29
2017-10-20T09:38:57.606Z,81.20
2017-10-20T09:39:57.568Z,81.86
2017-10-20T09:40:57.540Z,81.20
2017-10-20T09:41:57.496Z,81.57
2017-10-20T09:42:57.477Z,81.67
2017-10-20T09:43:57.436Z,81.38
2017-10-20T09:44:57.409Z,81.29
2017-10-20T09:45:57.371Z,81.29
2017-10-20T09:46:57.336Z,81.29
2017-10-20T09:47:57.295Z,81.77
2017-10-20T09:48:57.262Z,81.20
2017-10-20T09:49:57.228Z,81.48
2017-10-20T09:50:57.200Z,81.67
2017-10-20T09:51:57.170Z,82.06
2017-10-20T09:52:57.161Z,81.86
2017-10-20T09:53:57.109Z,81.86
2017-10-20T09:54:57.064Z,82.06
2017-10-20T09:55:57.032Z,81.86
2017-10-20T09:56:57.008Z,81.77
2017-10-20T09:57:56.961Z,81.62
2017-10-20T09:58:56.973Z,82.00
2017-10-20T09:59:56.896Z,82.00
2017-10-20T10:00:56.865Z,81.62
2017-10-20T10:01:56.832Z,81.71
2017-10-20T10:02:56.803Z,81.52
2017-10-20T10:03:56.775Z,81.43
2017-10-20T10:04:56.738Z,81.62
2017-10-20T10:05:56.689Z,81.43
2017-10-20T10:06:56.660Z,81.52
2017-10-20T10:07:56.630Z,81.13
2017-10-20T10:08:56.593Z,81.52
2017-10-20T10:09:56.560Z,81.52
2017-10-20T10:10:56.526Z,81.43
2017-10-20T10:11:56.498Z,81.52
2017-10-20T10:12:56.460Z,81.33
2017-10-20T10:13:56.430Z,81.33
2017-10-20T10:14:56.394Z,81.62
2017-10-20T10:15:56.359Z,80.94
2017-10-20T10:16:56.340Z,81.13
2017-10-20T10:17:56.298Z,81.37
2017-10-20T10:18:56.267Z,80.99
2017-10-20T10:19:56.303Z,80.51
2017-10-20T10:20:56.196Z,80.99
2017-10-20T10:21:56.178Z,80.41
2017-10-20T10:22:56.130Z,80.60
2017-10-20T10:23:56.112Z,80.79
2017-10-20T10:24:56.066Z,80.41
2017-10-20T10:25:56.031Z,80.32
2017-10-20T10:26:55.997Z,79.74
2017-10-20T10:27:55.996Z,79.74
2017-10-20T10:28:55.937Z,79.88
2017-10-20T10:29:55.912Z,79.88
2017-10-20T10:30:55.871Z,80.16
2017-10-20T10:31:55.833Z,79.49
2017-10-20T10:32:55.812Z,79.30
2017-10-20T10:33:55.767Z,79.59
2017-10-20T10:34:55.734Z,78.92
2017-10-20T10:35:55.701Z,79.68
2017-10-20T10:36:55.686Z,79.68
2017-10-20T10:37:55.636Z,79.59
2017-10-20T10:38:55.601Z,79.39
2017-10-20T10:39:55.576Z,79.21
2017-10-20T10:40:55.554Z,79.30
2017-10-20T10:41:55.516Z,79.93
2017-10-20T10:42:55.479Z,80.03
2017-10-20T10:43:55.443Z,80.07
2017-10-20T10:44:55.432Z,80.07
2017-10-20T10:45:55.390Z,79.21
2017-10-20T10:46:55.358Z,80.26
2017-10-20T10:47:55.332Z,80.07
2017-10-20T10:48:55.280Z,79.21
2017-10-20T10:49:55.268Z,80.07
2017-10-20T10:50:55.240Z,80.26
2017-10-20T10:51:55.184Z,79.49
2017-10-20T10:52:55.154Z,79.49
2017-10-20T10:53:55.128Z,79.82
2017-10-20T10:54:55.096Z,78.77
2017-10-20T10:55:55.064Z,79.44
2017-10-20T10:56:55.020Z,78.77
2017-10-20T10:57:55.005Z,79.24
2017-10-20T10:58:54.980Z,79.05
2017-10-20T10:59:54.941Z,79.34
2017-10-20T11:00:54.893Z,79.05
2017-10-20T11:01:54.861Z,79.14
2017-10-20T11:02:54.826Z,78.47
2017-10-20T11:03:54.794Z,78.28
2017-10-20T11:04:54.764Z,78.28
2017-10-20T11:05:54.731Z,78.42
2017-10-20T11:06:54.700Z,78.52
2017-10-20T11:07:54.674Z,77.75
2017-10-20T11:08:54.634Z,77.46
2017-10-20T11:09:54.675Z,77.46
2017-10-20T11:10:54.578Z,77.65
2017-10-20T11:11:54.540Z,77.23
2017-10-20T11:12:54.508Z,78.00
2017-10-20T11:13:54.474Z,78.28
2017-10-20T11:14:54.446Z,77.65
2017-10-20T11:15:54.434Z,77.56
2017-10-20T11:16:54.381Z,77.75
2017-10-20T11:17:54.354Z,77.84
2017-10-20T11:18:54.318Z,77.65
2017-10-20T11:19:54.289Z,77.26
2017-10-20T11:20:54.259Z,77.36
2017-10-20T11:21:54.232Z,77.46
2017-10-20T11:22:54.191Z,76.88
2017-10-20T11:23:54.167Z,76.31
2017-10-20T11:24:54.135Z,77.46
2017-10-20T11:25:54.097Z,77.17
2017-10-20T11:26:54.063Z,77.01
2017-10-20T11:27:54.033Z,77.01
2017-10-20T11:28:54.006Z,77.21
2017-10-20T11:29:53.996Z,77.40
2017-10-20T11:30:53.954Z,77.31
2017-10-20T11:31:53.932Z,76.92
2017-10-20T11:32:53.889Z,76.98
2017-10-20T11:33:53.847Z,76.88
2017-10-20T11:34:53.817Z,77.65
2017-10-20T11:35:53.783Z,77.11
2017-10-20T11:36:53.751Z,77.08
2017-10-20T11:37:53.721Z,77.65
2017-10-20T11:38:53.697Z,77.08
2017-10-20T11:39:53.668Z,77.26
2017-10-20T11:40:53.637Z,77.75
2017-10-20T11:41:53.630Z,77.40
2017-10-20T11:42:53.562Z,77.65
2017-10-20T11:43:53.531Z,77.69
2017-10-20T11:44:53.518Z,77.88
2017-10-20T11:45:53.471Z,77.75
2017-10-20T11:46:53.444Z,77.50
2017-10-20T11:47:53.428Z,77.75
2017-10-20T11:48:53.378Z,77.75
2017-10-20T11:49:53.354Z,77.56
2017-10-20T11:50:53.329Z,78.32
2017-10-20T11:51:53.309Z,78.61
2017-10-20T11:52:53.259Z,78.13
2017-10-20T11:53:53.220Z,77.80
2017-10-20T11:54:53.196Z,78.09
2017-10-20T11:55:53.163Z,78.28
2017-10-20T11:56:53.131Z,78.09
2017-10-20T11:57:53.102Z,79.24
2017-10-20T11:58:53.092Z,79.05
2017-10-20T11:59:53.062Z,79.44
2017-10-20T12:00:53.003Z,79.14
2017-10-20T12:01:52.970Z,79.63
2017-10-20T12:02:52.953Z,79.44
2017-10-20T12:03:52.911Z,79.34
2017-10-20T12:04:52.876Z,79.14
2017-10-20T12:05:52.845Z,78.96
2017-10-20T12:06:52.831Z,79.44
2017-10-20T12:07:52.783Z,79.91
2017-10-20T12:08:52.750Z,80.07
2017-10-20T12:09:52.729Z,80.16
2017-10-20T12:10:52.691Z,79.97
2017-10-20T12:11:52.659Z,80.64
2017-10-20T12:12:52.624Z,80.55
2017-10-20T12:13:52.598Z,80.07
2017-10-20T12:14:52.562Z,80.45
2017-10-20T12:15:52.526Z,80.45
2017-10-20T12:16:52.492Z,80.83
2017-10-20T12:17:52.469Z,80.74
2017-10-20T12:18:52.431Z,80.55
2017-10-20T12:19:52.401Z,80.83
2017-10-20T12:20:52.392Z,80.83
2017-10-20T12:21:52.368Z,81.02
2017-10-20T12:22:52.313Z,80.74
2017-10-20T12:23:52.279Z,80.55
2017-10-20T12:24:52.253Z,80.55
2017-10-20T12:25:52.210Z,80.93
2017-10-20T12:26:52.189Z,81.12
2017-10-20T12:27:52.151Z,81.12
2017-10-20T12:28:52.114Z,81.31
2017-10-20T12:29:52.110Z,81.51
2017-10-20T12:30:52.059Z,81.89
2017-10-20T12:31:52.052Z,81.60
2017-10-20T12:32:51.990Z,81.02
2017-10-20T12:33:51.954Z,81.02
2017-10-20T12:34:51.941Z,81.31
2017-10-20T12:35:51.887Z,81.41
2017-10-20T12:36:51.859Z,81.12
2017-10-20T12:37:51.819Z,81.12
2017-10-20T12:38:51.796Z,81.22
2017-10-20T12:39:51.768Z,81.22
2017-10-20T12:40:51.772Z,81.41
2017-10-20T12:41:51.690Z,81.31
2017-10-20T12:42:51.674Z,81.70
2017-10-20T12:43:51.637Z,81.41
2017-10-20T12:44:51.619Z,81.89
2017-10-20T12:45:51.567Z,81.60
2017-10-20T12:46:51.530Z,81.51
2017-10-20T12:47:51.498Z,81.41
2017-10-20T12:48:51.469Z,81.60
2017-10-20T12:49:51.445Z,81.98
2017-10-20T12:50:51.401Z,81.51
2017-10-20T12:51:51.377Z,81.70